Time;durP1;ratioP1;P1;durP2;ratioP2;P2;SDS_P1;SDS_P2;PMS_P1;PMS_P2;Temp;Humidity;BMP_temperature;BMP_pressure;BME280_temperature;BME280_humidity;BME280_pressure;Samples;Min_cycle;Max_cycle;Signal;HPM_P1;HPM_P2
2022/12/28 00:01:57;;;;;;;10.10;5.50;;;6.10;99.90;;;;;;5094410;27;20813;-80
2022/12/28 00:04:47;;;;;;;13.03;6.20;;;6.20;99.90;;;;;;5097397;28;20929;-79
2022/12/28 00:07:35;;;;;;;11.43;6.07;;;6.10;99.90;;;;;;5119524;27;20242;-81
2022/12/28 00:10:26;;;;;;;14.30;6.97;;;6.10;99.90;;;;;;5123195;27;20265;-81
2022/12/28 00:13:36;;;;;;;12.87;6.87;;;6.10;99.90;;;;;;5101569;28;20218;-81
2022/12/28 00:16:27;;;;;;;14.23;6.67;;;6.10;99.90;;;;;;5094011;27;20265;-79
2022/12/28 00:19:17;;;;;;;11.43;6.67;;;6.20;99.90;;;;;;5100860;27;20299;-81
2022/12/28 00:22:06;;;;;;;10.27;6.27;;;6.20;99.90;;;;;;5100246;27;20846;-80
2022/12/28 00:24:55;;;;;;;15.83;6.73;;;6.20;99.90;;;;;;5100983;27;20218;-80
2022/12/28 00:27:44;;;;;;;14.63;5.77;;;6.10;99.90;;;;;;5103644;27;20223;-79
2022/12/28 00:30:33;;;;;;;13.67;6.07;;;6.20;99.90;;;;;;5099109;28;20582;-77
2022/12/28 00:33:21;;;;;;;15.73;6.27;;;6.10;99.90;;;;;;5104608;27;20224;-79
2022/12/28 00:36:13;;;;;;;13.53;5.80;;;6.10;99.90;;;;;;5102872;27;20673;-78
2022/12/28 00:39:02;;;;;;;13.43;5.70;;;6.00;99.90;;;;;;5097594;28;20263;-78
2022/12/28 00:41:54;;;;;;;14.67;5.80;;;5.90;99.90;;;;;;5101890;27;20217;-77
2022/12/28 00:44:43;;;;;;;11.97;5.97;;;6.00;99.90;;;;;;5096807;27;20225;-78
2022/12/28 00:47:34;;;;;;;14.07;5.90;;;6.10;99.90;;;;;;5116388;27;20646;-78
2022/12/28 00:50:23;;;;;;;14.57;6.00;;;6.00;99.90;;;;;;5096235;27;20976;-78
2022/12/28 00:53:13;;;;;;;12.47;5.33;;;6.00;99.90;;;;;;5092867;27;20276;-75
2022/12/28 00:56:06;;;;;;;9.73;4.90;;;6.00;99.90;;;;;;5117980;27;20240;-80
2022/12/28 00:58:57;;;;;;;15.93;5.70;;;6.00;99.90;;;;;;5102975;27;20253;-80
2022/12/28 01:01:46;;;;;;;15.43;5.67;;;5.90;99.90;;;;;;5096415;28;20226;-79
2022/12/28 01:04:35;;;;;;;14.90;5.50;;;5.90;99.90;;;;;;5098361;28;20701;-78
2022/12/28 01:07:23;;;;;;;12.70;5.27;;;5.90;99.90;;;;;;5103301;27;20224;-78
2022/12/28 01:10:14;;;;;;;16.13;5.87;;;5.90;99.90;;;;;;5100091;27;20230;-78
2022/12/28 01:13:02;;;;;;;18.03;5.83;;;6.00;99.90;;;;;;5098460;27;20251;-76
2022/12/28 01:15:51;;;;;;;11.57;5.57;;;6.00;99.90;;;;;;5102608;28;20506;-79
2022/12/28 01:18:41;;;;;;;14.77;5.93;;;6.00;99.90;;;;;;5111830;27;20357;-78
2022/12/28 01:21:32;;;;;;;10.93;5.63;;;6.10;99.90;;;;;;5095425;27;20223;-76
2022/12/28 01:24:21;;;;;;;15.50;5.77;;;5.90;99.90;;;;;;5090512;28;20474;-76
2022/12/28 01:27:11;;;;;;;14.40;6.00;;;5.80;99.90;;;;;;5104891;27;20253;-77
2022/12/28 01:30:00;;;;;;;12.83;5.57;;;5.90;99.90;;;;;;5128533;27;20286;-76
2022/12/28 01:32:49;;;;;;;13.17;5.50;;;5.90;99.90;;;;;;5096464;27;20235;-78
2022/12/28 01:35:38;;;;;;;14.90;5.67;;;5.90;99.90;;;;;;5114000;27;20219;-76
2022/12/28 01:38:26;;;;;;;13.00;6.00;;;5.90;99.90;;;;;;5101317;27;20630;-78
2022/12/28 01:41:18;;;;;;;12.97;5.33;;;5.90;99.90;;;;;;5096078;27;20221;-78
2022/12/28 01:44:43;;;;;;;11.10;5.40;;;5.90;99.90;;;;;;5102302;27;20260;-78
2022/12/28 01:47:35;;;;;;;12.93;5.60;;;5.90;99.90;;;;;;5086635;28;20216;-80
2022/12/28 01:50:27;;;;;;;16.97;6.30;;;5.90;99.90;;;;;;5122155;27;20753;-79
2022/12/28 01:53:18;;;;;;;13.97;6.53;;;5.80;99.90;;;;;;5105660;27;20228;-78
2022/12/28 01:56:08;;;;;;;12.37;5.90;;;5.90;99.90;;;;;;5113486;27;21059;-78
2022/12/28 01:58:58;;;;;;;16.70;6.30;;;5.90;99.90;;;;;;5101542;27;20226;-79
2022/12/28 02:01:46;;;;;;;10.17;5.70;;;5.90;99.90;;;;;;5103946;27;20222;-77
2022/12/28 02:04:38;;;;;;;12.50;6.87;;;5.90;99.90;;;;;;5099913;27;20220;-78
2022/12/28 02:07:38;;;;;;;20.07;6.67;;;5.90;99.90;;;;;;5102572;27;20223;-77
2022/12/28 02:10:27;;;;;;;14.23;6.53;;;6.00;99.90;;;;;;5093103;28;20230;-77
2022/12/28 02:13:32;;;;;;;20.27;6.90;;;6.00;99.90;;;;;;5098136;28;20303;-78
2022/12/28 02:16:21;;;;;;;16.03;6.80;;;5.90;99.90;;;;;;5102165;27;20234;-79
2022/12/28 02:19:13;;;;;;;15.23;6.70;;;5.90;99.90;;;;;;5101021;27;20230;-78
2022/12/28 02:22:21;;;;;;;16.73;7.33;;;5.80;99.90;;;;;;5098462;28;20226;-79
2022/12/28 02:25:33;;;;;;;13.97;6.87;;;5.80;99.90;;;;;;5099478;27;20211;-78
2022/12/28 02:28:54;;;;;;;16.83;7.00;;;5.80;99.90;;;;;;5100831;28;20224;-78
2022/12/28 02:31:55;;;;;;;17.67;7.00;;;5.80;99.90;;;;;;5092288;28;20291;-79
2022/12/28 02:34:50;;;;;;;16.90;7.27;;;5.70;99.90;;;;;;5100221;28;20238;-79
2022/12/28 02:37:44;;;;;;;13.13;6.50;;;5.80;99.90;;;;;;5097530;27;20242;-79
2022/12/28 02:40:37;;;;;;;12.90;6.70;;;5.70;99.90;;;;;;5111599;27;20764;-79
2022/12/28 02:43:27;;;;;;;16.53;6.83;;;5.70;99.90;;;;;;5101421;27;20215;-80
2022/12/28 02:53:03;;;;;;;14.50;7.13;;;5.60;99.90;;;;;;5127343;27;20791;-81
2022/12/28 02:56:06;;;;;;;15.80;7.23;;;5.60;99.90;;;;;;5127060;27;20296;-81
2022/12/28 02:59:37;;;;;;;16.10;6.63;;;5.50;99.90;;;;;;5097762;27;20219;-82
2022/12/28 03:02:42;;;;;;;12.73;6.80;;;5.50;99.90;;;;;;5100172;27;20228;-82
2022/12/28 03:08:52;;;;;;;12.97;6.77;;;5.30;99.90;;;;;;5105920;28;20226;-80
2022/12/28 03:11:46;;;;;;;13.23;7.23;;;5.30;99.90;;;;;;5097098;27;20700;-81
2022/12/28 03:14:43;;;;;;;16.20;7.13;;;5.20;99.90;;;;;;5117105;27;20215;-80
2022/12/28 03:33:21;;;;;;;18.67;7.37;;;4.90;99.90;;;;;;5095567;28;20215;-79
2022/12/28 03:36:18;;;;;;;15.63;7.53;;;4.90;99.90;;;;;;5093441;28;20292;-78
2022/12/28 03:39:15;;;;;;;15.77;7.47;;;4.90;99.90;;;;;;5099961;27;20230;-79
2022/12/28 03:45:25;;;;;;;13.90;7.67;;;4.80;99.90;;;;;;5105453;27;20697;-78
2022/12/28 03:48:36;;;;;;;17.53;7.70;;;4.80;99.90;;;;;;5102453;27;20756;-79
2022/12/28 03:51:28;;;;;;;14.40;8.20;;;4.60;99.90;;;;;;5083535;28;20242;-79
2022/12/28 03:54:19;;;;;;;13.87;7.93;;;4.70;99.90;;;;;;5100573;27;20303;-80
2022/12/28 03:57:08;;;;;;;15.33;7.83;;;4.60;99.90;;;;;;5098702;27;20222;-80
2022/12/28 04:00:01;;;;;;;13.13;7.70;;;4.50;99.90;;;;;;5104292;27;20317;-80
2022/12/28 04:02:51;;;;;;;18.47;8.30;;;4.50;99.90;;;;;;5095194;27;20916;-80
2022/12/28 04:05:43;;;;;;;17.60;8.23;;;4.40;99.90;;;;;;5125793;27;20227;-80
2022/12/28 04:08:34;;;;;;;12.50;7.90;;;4.40;99.90;;;;;;5102167;28;20313;-82
2022/12/28 04:11:25;;;;;;;16.53;8.57;;;4.20;99.90;;;;;;5083016;28;20215;-80
2022/12/28 04:14:15;;;;;;;14.37;8.10;;;4.40;99.90;;;;;;5098157;27;20574;-80
2022/12/28 04:17:04;;;;;;;16.33;8.63;;;4.20;99.90;;;;;;5096707;27;20246;-81
2022/12/28 04:19:53;;;;;;;14.23;7.90;;;4.20;99.90;;;;;;5119215;27;20234;-79
2022/12/28 04:22:42;;;;;;;16.67;8.00;;;4.10;99.90;;;;;;5094600;27;20224;-80
2022/12/28 04:25:32;;;;;;;17.27;8.17;;;4.10;99.90;;;;;;5087663;28;20264;-81
2022/12/28 04:28:22;;;;;;;12.93;8.13;;;4.10;99.90;;;;;;5110783;27;20218;-81
2022/12/28 04:31:42;;;;;;;16.27;8.10;;;4.10;99.90;;;;;;5099324;27;20235;-82
2022/12/28 04:34:34;;;;;;;20.20;8.10;;;4.00;99.90;;;;;;5098238;27;20225;-82
2022/12/28 04:37:30;;;;;;;16.43;8.13;;;4.00;99.90;;;;;;5102800;27;20230;-82
2022/12/28 04:40:18;;;;;;;18.10;8.23;;;4.10;99.90;;;;;;5099043;27;20318;-82
2022/12/28 04:43:09;;;;;;;14.30;8.47;;;4.00;99.90;;;;;;5097912;27;20235;-82
2022/12/28 04:45:58;;;;;;;15.33;8.43;;;3.90;99.90;;;;;;5099789;27;20224;-82
2022/12/28 04:48:47;;;;;;;17.30;8.50;;;3.90;99.90;;;;;;5103890;27;20752;-82
2022/12/28 04:51:36;;;;;;;14.57;8.40;;;4.00;99.90;;;;;;5133638;27;20596;-83
2022/12/28 04:54:24;;;;;;;14.40;7.87;;;3.90;99.90;;;;;;5096723;28;20965;-82
2022/12/28 04:57:13;;;;;;;16.13;8.10;;;3.90;99.90;;;;;;5102706;27;20225;-80
2022/12/28 05:00:04;;;;;;;15.40;7.57;;;3.90;99.90;;;;;;5098701;27;20653;-80
2022/12/28 05:02:53;;;;;;;14.13;8.07;;;3.90;99.90;;;;;;5095817;28;20733;-79
2022/12/28 05:05:42;;;;;;;17.33;8.73;;;3.80;99.90;;;;;;5098606;28;20592;-79
2022/12/28 05:08:31;;;;;;;14.07;7.90;;;3.80;99.90;;;;;;5101151;27;20332;-79
2022/12/28 05:11:22;;;;;;;14.10;8.23;;;3.90;99.90;;;;;;5089433;27;20219;-78
2022/12/28 05:14:11;;;;;;;16.30;9.13;;;3.80;99.90;;;;;;5100493;27;20238;-78
2022/12/28 05:17:01;;;;;;;16.20;8.40;;;3.80;99.90;;;;;;5122202;27;20212;-80
2022/12/28 05:19:50;;;;;;;14.90;8.27;;;3.80;99.90;;;;;;5091516;27;20223;-80
2022/12/28 05:22:39;;;;;;;14.93;8.43;;;3.70;99.90;;;;;;5115118;27;20702;-79
2022/12/28 05:25:28;;;;;;;16.30;8.97;;;3.70;99.90;;;;;;5092939;28;20215;-80
2022/12/28 05:28:17;;;;;;;17.07;9.20;;;3.70;99.90;;;;;;5094684;27;20229;-79
2022/12/28 05:31:11;;;;;;;14.20;8.50;;;3.70;99.90;;;;;;5094866;27;20234;-79
2022/12/28 05:34:01;;;;;;;17.33;9.13;;;3.70;99.90;;;;;;5102339;27;20219;-79
2022/12/28 05:36:50;;;;;;;16.53;8.83;;;3.70;99.90;;;;;;5102299;27;20224;-77
2022/12/28 05:39:38;;;;;;;17.60;9.00;;;3.70;99.90;;;;;;5101688;28;20219;-78
2022/12/28 05:42:27;;;;;;;18.07;9.17;;;3.60;99.90;;;;;;5121303;27;20928;-78
2022/12/28 05:45:16;;;;;;;18.63;9.20;;;3.60;99.90;;;;;;5100771;27;20227;-78
2022/12/28 05:48:06;;;;;;;20.23;9.83;;;3.60;99.90;;;;;;5127010;27;20283;-76
2022/12/28 05:50:59;;;;;;;17.47;8.93;;;3.50;99.90;;;;;;5096260;27;20706;-78
2022/12/28 05:53:48;;;;;;;15.80;8.80;;;3.60;99.90;;;;;;5092248;28;20728;-79
2022/12/28 05:56:37;;;;;;;16.70;9.10;;;3.60;99.90;;;;;;5103442;27;20222;-78
2022/12/28 05:59:26;;;;;;;20.10;10.00;;;3.60;99.90;;;;;;5102413;27;20234;-78
2022/12/28 06:02:15;;;;;;;19.97;9.57;;;3.50;99.90;;;;;;5099072;27;20214;-79
2022/12/28 06:05:13;;;;;;;19.33;10.00;;;3.50;99.90;;;;;;5093240;28;20304;-79
2022/12/28 06:08:03;;;;;;;19.77;10.70;;;3.50;99.90;;;;;;5095871;27;20249;-80
2022/12/28 06:10:51;;;;;;;21.43;9.90;;;3.60;99.90;;;;;;5130739;27;20226;-79
2022/12/28 06:13:41;;;;;;;18.03;9.43;;;3.50;99.90;;;;;;5101121;28;20731;-78
2022/12/28 06:16:31;;;;;;;20.30;10.43;;;3.50;99.90;;;;;;5104661;27;20701;-78
2022/12/28 06:19:20;;;;;;;23.00;10.47;;;3.40;99.90;;;;;;5098505;28;20226;-80
2022/12/28 06:22:09;;;;;;;21.70;10.87;;;3.30;99.90;;;;;;5096417;27;20222;-79
2022/12/28 06:24:59;;;;;;;19.67;10.93;;;3.30;99.90;;;;;;5095903;28;20818;-79
2022/12/28 06:27:48;;;;;;;16.87;10.17;;;3.40;99.90;;;;;;5101539;27;20218;-79
2022/12/28 06:30:37;;;;;;;18.83;11.07;;;3.40;99.90;;;;;;5101057;28;20222;-78
2022/12/28 06:33:26;;;;;;;21.13;11.47;;;3.30;99.90;;;;;;5115021;27;20242;-80
2022/12/28 06:36:16;;;;;;;18.87;11.40;;;3.30;99.90;;;;;;5102510;27;20229;-79
2022/12/28 06:39:10;;;;;;;15.83;10.30;;;3.40;99.90;;;;;;5095187;27;20223;-80
2022/12/28 06:42:00;;;;;;;19.97;11.17;;;3.40;99.90;;;;;;5104148;28;20240;-79
2022/12/28 06:44:49;;;;;;;18.33;10.27;;;3.30;99.90;;;;;;5097939;27;20602;-78
2022/12/28 06:47:38;;;;;;;21.33;11.03;;;3.30;99.90;;;;;;5099112;28;20238;-79
2022/12/28 06:50:27;;;;;;;17.00;11.07;;;3.30;99.90;;;;;;5106311;27;20227;-77
2022/12/28 06:53:16;;;;;;;21.33;11.63;;;3.30;99.90;;;;;;5100799;27;20230;-81
2022/12/28 06:56:06;;;;;;;20.33;11.83;;;3.30;99.90;;;;;;5099131;27;20226;-77
2022/12/28 06:58:57;;;;;;;23.50;11.67;;;3.30;99.90;;;;;;5102383;27;20215;-78
2022/12/28 07:01:51;;;;;;;20.97;11.87;;;3.20;99.90;;;;;;5098650;27;20595;-78
2022/12/28 07:04:41;;;;;;;21.90;11.77;;;3.30;99.90;;;;;;5127990;27;20222;-80
2022/12/28 07:07:29;;;;;;;21.00;12.63;;;3.30;99.90;;;;;;5097446;27;20589;-80
2022/12/28 07:10:19;;;;;;;17.77;11.17;;;3.40;99.90;;;;;;5096072;27;20238;-81
2022/12/28 07:13:08;;;;;;;23.00;11.63;;;3.40;99.90;;;;;;5114430;27;20860;-78
2022/12/28 07:16:02;;;;;;;18.20;11.57;;;3.40;99.90;;;;;;5103930;27;20264;-79
2022/12/28 07:18:51;;;;;;;24.33;11.63;;;3.30;99.90;;;;;;5101720;27;20322;-80
2022/12/28 07:21:40;;;;;;;20.33;11.50;;;3.30;99.90;;;;;;5097167;28;20215;-80
2022/12/28 07:24:29;;;;;;;22.37;11.90;;;3.40;99.90;;;;;;5099965;27;20231;-80
2022/12/28 07:27:18;;;;;;;19.50;11.17;;;3.40;99.90;;;;;;5097944;27;20630;-76
2022/12/28 07:30:08;;;;;;;18.67;11.27;;;3.30;99.90;;;;;;5123967;27;20231;-83
2022/12/28 07:32:58;;;;;;;17.93;11.63;;;3.30;99.90;;;;;;5096964;27;20222;-83
2022/12/28 07:35:47;;;;;;;19.13;11.10;;;3.30;99.90;;;;;;5094165;27;20228;-83
2022/12/28 07:38:36;;;;;;;17.30;10.63;;;3.40;99.90;;;;;;5101313;27;20271;-83
2022/12/28 07:41:27;;;;;;;16.87;10.87;;;3.50;99.90;;;;;;5096404;27;20229;-78
2022/12/28 07:44:18;;;;;;;20.77;11.00;;;3.50;99.90;;;;;;5094119;28;21101;-78
2022/12/28 07:47:08;;;;;;;19.20;10.03;;;3.50;99.90;;;;;;5092726;28;20283;-77
2022/12/28 07:49:58;;;;;;;19.57;10.80;;;3.60;99.90;;;;;;5097205;27;20745;-77
2022/12/28 07:52:47;;;;;;;18.87;11.10;;;3.50;99.90;;;;;;5098374;27;20219;-78
2022/12/28 07:55:39;;;;;;;22.17;10.47;;;3.50;99.90;;;;;;5100410;27;20701;-78
2022/12/28 07:58:28;;;;;;;18.33;10.50;;;3.70;99.90;;;;;;5091493;27;20214;-78
2022/12/28 08:01:18;;;;;;;20.43;10.83;;;3.60;99.90;;;;;;5087947;27;20307;-79
2022/12/28 08:04:09;;;;;;;19.00;9.83;;;3.70;99.90;;;;;;5097455;27;20231;-79
2022/12/28 08:06:59;;;;;;;18.70;10.33;;;3.80;99.90;;;;;;5098993;28;20751;-78
2022/12/28 08:09:48;;;;;;;19.57;10.87;;;3.80;99.90;;;;;;5091986;27;20233;-79
2022/12/28 08:12:37;;;;;;;17.43;9.87;;;3.80;99.90;;;;;;5096678;28;20688;-78
2022/12/28 08:15:26;;;;;;;19.83;10.23;;;3.80;99.90;;;;;;5104318;27;20238;-79
2022/12/28 08:18:15;;;;;;;19.30;10.03;;;4.00;99.90;;;;;;5087572;27;20313;-79
2022/12/28 08:21:06;;;;;;;19.63;10.30;;;3.90;99.90;;;;;;5089044;27;20235;-80
2022/12/28 08:23:57;;;;;;;17.33;9.63;;;3.70;99.90;;;;;;5125833;27;20713;-80
2022/12/28 08:26:48;;;;;;;18.43;9.97;;;3.70;99.90;;;;;;5094794;28;20305;-80
2022/12/28 08:29:37;;;;;;;19.20;10.10;;;3.80;99.90;;;;;;5090259;28;20234;-80
2022/12/28 08:32:26;;;;;;;16.90;10.00;;;3.90;99.90;;;;;;5093830;28;20223;-79
2022/12/28 08:35:14;;;;;;;17.83;9.57;;;3.90;99.90;;;;;;5095500;27;20223;-79
2022/12/28 08:38:03;;;;;;;15.30;10.00;;;4.00;99.90;;;;;;5091976;27;20694;-79
2022/12/28 08:40:57;;;;;;;20.33;10.73;;;3.90;99.90;;;;;;5095193;27;20230;-79
2022/12/28 08:43:46;;;;;;;20.50;10.20;;;4.00;99.90;;;;;;5089777;28;20223;-80
2022/12/28 08:46:36;;;;;;;20.10;9.97;;;4.10;99.90;;;;;;5123308;27;21469;-81
2022/12/28 08:49:25;;;;;;;18.30;10.10;;;4.20;99.90;;;;;;5125042;27;20235;-81
2022/12/28 08:52:13;;;;;;;19.20;10.53;;;4.30;99.90;;;;;;5101139;27;20232;-81
2022/12/28 08:55:02;;;;;;;15.60;9.70;;;4.30;99.90;;;;;;5093000;28;20215;-83
2022/12/28 08:57:52;;;;;;;19.97;10.40;;;4.40;99.90;;;;;;5099409;27;20210;-83
2022/12/28 09:00:41;;;;;;;18.83;10.37;;;4.50;99.90;;;;;;5121515;27;20282;-85
2022/12/28 09:03:30;;;;;;;16.37;10.17;;;4.60;99.90;;;;;;5088295;28;20588;-83
2022/12/28 09:06:21;;;;;;;18.93;10.00;;;4.70;99.90;;;;;;5085629;28;20231;-83
2022/12/28 09:09:12;;;;;;;14.97;9.43;;;4.70;99.90;;;;;;5093047;27;20230;-83
2022/12/28 09:12:01;;;;;;;19.03;9.70;;;4.80;99.90;;;;;;5094250;28;20222;-84
2022/12/28 09:14:51;;;;;;;16.90;9.60;;;4.70;99.90;;;;;;5084073;28;20211;-82
2022/12/28 09:17:40;;;;;;;17.67;9.00;;;4.90;99.90;;;;;;5122111;27;20227;-82
2022/12/28 09:20:29;;;;;;;20.03;9.73;;;4.80;99.90;;;;;;5099850;27;20238;-82
2022/12/28 09:23:18;;;;;;;18.37;9.70;;;4.90;99.90;;;;;;5099022;27;20227;-84
2022/12/28 09:26:08;;;;;;;18.70;9.53;;;5.00;99.90;;;;;;5090183;27;21055;-82
2022/12/28 09:28:59;;;;;;;15.03;8.80;;;4.90;99.90;;;;;;5092565;28;20219;-82
2022/12/28 09:31:49;;;;;;;15.70;8.67;;;4.90;99.90;;;;;;5094634;28;20856;-83
2022/12/28 09:34:38;;;;;;;17.33;9.60;;;4.90;99.90;;;;;;5101296;27;20255;-83
2022/12/28 09:37:27;;;;;;;14.57;8.87;;;5.10;99.90;;;;;;5095106;27;20224;-83
2022/12/28 09:40:16;;;;;;;21.97;12.93;;;5.20;99.90;;;;;;5101377;28;20398;-83
2022/12/28 09:43:05;;;;;;;17.53;9.27;;;5.20;99.90;;;;;;5089968;28;21070;-82
2022/12/28 09:45:55;;;;;;;14.27;8.40;;;5.30;99.90;;;;;;5092589;28;20216;-83
2022/12/28 09:48:50;;;;;;;18.70;10.00;;;5.30;99.90;;;;;;5094618;27;20235;-83
2022/12/28 09:51:46;;;;;;;15.27;8.70;;;5.40;99.90;;;;;;5096844;28;20301;-81
2022/12/28 09:54:35;;;;;;;15.27;7.83;;;5.40;99.90;;;;;;5090029;27;20230;-81
2022/12/28 09:57:27;;;;;;;15.27;8.37;;;5.50;99.90;;;;;;5101788;27;20223;-84
2022/12/28 10:00:18;;;;;;;14.90;7.60;;;5.50;99.90;;;;;;5104044;27;20701;-80
2022/12/28 10:03:15;;;;;;;14.73;6.93;;;5.50;99.90;;;;;;5104873;27;20227;-83
2022/12/28 10:06:14;;;;;;;12.97;7.70;;;5.50;99.90;;;;;;5102101;27;20223;-81
2022/12/28 10:09:05;;;;;;;12.93;6.97;;;5.50;99.90;;;;;;5122428;27;20736;-81
2022/12/28 10:11:54;;;;;;;11.43;6.40;;;5.60;99.90;;;;;;5093591;28;20219;-82
2022/12/28 10:14:46;;;;;;;15.07;6.90;;;5.70;99.90;;;;;;5103227;27;20211;-81
2022/12/28 10:17:34;;;;;;;13.90;7.40;;;5.70;99.90;;;;;;5098032;27;20231;-84
2022/12/28 10:20:23;;;;;;;15.93;7.57;;;5.80;99.90;;;;;;5095789;27;20215;-86
2022/12/28 10:23:19;;;;;;;15.10;6.93;;;5.90;99.90;;;;;;5100397;28;20215;-85
2022/12/28 10:26:12;;;;;;;13.17;7.67;;;6.00;99.90;;;;;;5098253;27;20785;-83
2022/12/28 10:29:01;;;;;;;15.57;7.13;;;5.90;99.90;;;;;;5092263;27;20314;-83
2022/12/28 10:32:00;;;;;;;10.07;6.70;;;6.00;99.90;;;;;;5097064;27;20226;-83
2022/12/28 10:34:57;;;;;;;13.10;6.40;;;5.90;99.90;;;;;;5122431;27;20223;-84
2022/12/28 10:37:46;;;;;;;12.70;6.27;;;6.00;99.90;;;;;;5125102;27;20674;-83
2022/12/28 10:40:38;;;;;;;11.70;6.30;;;6.00;99.90;;;;;;5091874;27;20256;-80
2022/12/28 10:43:30;;;;;;;15.13;6.47;;;6.10;99.90;;;;;;5100906;27;20246;-86
2022/12/28 10:46:21;;;;;;;16.63;6.53;;;6.20;99.90;;;;;;5100430;27;20229;-87
2022/12/28 10:49:15;;;;;;;14.97;7.23;;;6.20;99.90;;;;;;5113766;27;20766;-90
2022/12/28 10:52:07;;;;;;;12.60;6.37;;;6.20;99.90;;;;;;5104227;27;20235;-85
2022/12/28 10:54:56;;;;;;;12.43;6.70;;;6.20;99.90;;;;;;5099304;28;20223;-88
2022/12/28 10:58:16;;;;;;;11.60;6.50;;;6.30;99.90;;;;;;5094970;28;20224;-86
2022/12/28 11:01:26;;;;;;;15.63;7.07;;;6.30;99.90;;;;;;5092352;28;20230;-84
2022/12/28 11:04:19;;;;;;;18.33;8.00;;;6.20;99.90;;;;;;5108488;27;20222;-84
2022/12/28 11:07:27;;;;;;;15.03;8.47;;;6.10;99.90;;;;;;5095375;27;20227;-82
2022/12/28 11:10:29;;;;;;;17.47;6.77;;;6.10;99.90;;;;;;5094800;27;20318;-84
2022/12/28 11:13:20;;;;;;;15.87;7.57;;;6.20;99.90;;;;;;5111835;27;20230;-84
2022/12/28 11:16:13;;;;;;;13.10;7.27;;;6.10;99.90;;;;;;5092069;27;20717;-83
2022/12/28 11:19:02;;;;;;;17.03;7.63;;;6.10;99.90;;;;;;5089642;27;20337;-83
2022/12/28 11:21:52;;;;;;;11.93;7.13;;;6.00;99.90;;;;;;5097292;28;20220;-83
2022/12/28 11:24:41;;;;;;;15.57;7.30;;;6.10;99.90;;;;;;5092607;27;20299;-82
2022/12/28 11:27:33;;;;;;;16.00;7.87;;;6.10;99.90;;;;;;5096163;28;20710;-83
2022/12/28 11:30:23;;;;;;;16.67;7.90;;;6.10;99.90;;;;;;5107292;27;20223;-83
2022/12/28 11:33:26;;;;;;;17.63;7.43;;;6.10;99.90;;;;;;5102487;27;20826;-82
2022/12/28 11:36:17;;;;;;;19.83;8.27;;;6.10;99.90;;;;;;5098589;27;20237;-85
2022/12/28 11:39:31;;;;;;;17.23;8.80;;;6.00;99.90;;;;;;5097735;27;20223;-87
2022/12/28 11:42:53;;;;;;;13.73;8.27;;;6.10;99.90;;;;;;5098007;27;20211;-87
2022/12/28 11:45:51;;;;;;;15.63;8.13;;;6.10;99.90;;;;;;5104594;27;20609;-86
2022/12/28 11:48:56;;;;;;;19.83;8.63;;;6.10;99.90;;;;;;5095959;28;20212;-85
2022/12/28 11:51:45;;;;;;;12.23;7.23;;;6.10;99.90;;;;;;5097116;28;20222;-86
2022/12/28 11:54:37;;;;;;;16.33;7.97;;;6.10;99.90;;;;;;5104643;28;20213;-85
2022/12/28 11:57:36;;;;;;;15.47;7.90;;;6.10;99.90;;;;;;5126401;27;20218;-86
2022/12/28 12:00:49;;;;;;;15.70;7.63;;;6.10;99.90;;;;;;5094106;28;20262;-86
2022/12/28 12:04:14;;;;;;;15.87;8.03;;;6.10;99.90;;;;;;5133395;27;20222;-89
2022/12/28 12:07:45;;;;;;;16.53;7.83;;;6.10;99.90;;;;;;5084041;27;20223;-91
2022/12/28 12:10:35;;;;;;;13.87;7.57;;;6.10;99.90;;;;;;5101267;27;20589;-88
2022/12/28 12:13:43;;;;;;;15.63;8.27;;;6.10;99.90;;;;;;5107244;27;20304;-85
2022/12/28 12:16:46;;;;;;;16.80;7.70;;;6.10;99.90;;;;;;5098825;27;20221;-86
2022/12/28 12:19:38;;;;;;;15.77;8.03;;;6.10;99.90;;;;;;5098245;28;20230;-85
2022/12/28 12:22:30;;;;;;;14.07;8.03;;;6.10;99.90;;;;;;5095831;27;20240;-79
2022/12/28 12:25:24;;;;;;;15.47;8.20;;;6.10;99.90;;;;;;5099395;27;20211;-79
2022/12/28 12:28:29;;;;;;;16.50;7.87;;;6.10;99.90;;;;;;5097969;27;20218;-75
2022/12/28 12:31:26;;;;;;;15.37;8.07;;;6.20;99.90;;;;;;5109897;27;20234;-79
2022/12/28 12:34:26;;;;;;;14.90;7.97;;;6.20;99.90;;;;;;5116695;27;20236;-79
2022/12/28 12:37:32;;;;;;;15.83;7.60;;;6.30;99.90;;;;;;5087019;27;20661;-78
2022/12/28 12:40:58;;;;;;;13.67;7.90;;;6.20;99.90;;;;;;5096181;28;20231;-77
2022/12/28 12:44:00;;;;;;;15.63;8.47;;;6.20;99.90;;;;;;5095003;27;20627;-79
2022/12/28 12:47:10;;;;;;;18.07;8.17;;;6.10;99.90;;;;;;5116311;27;20226;-78
2022/12/28 12:50:24;;;;;;;15.17;8.20;;;6.10;99.90;;;;;;5098924;27;21002;-79
2022/12/28 12:53:32;;;;;;;15.73;8.17;;;6.00;99.90;;;;;;5082528;27;20759;-79
2022/12/28 12:56:38;;;;;;;19.13;8.27;;;6.00;99.90;;;;;;5088357;28;20215;-79
2022/12/28 13:00:00;;;;;;;15.73;8.53;;;6.00;99.90;;;;;;5097686;27;20220;-81
2022/12/28 13:03:20;;;;;;;17.57;8.93;;;6.00;99.90;;;;;;5096450;27;20223;-80
2022/12/28 13:06:15;;;;;;;12.63;8.10;;;6.00;99.90;;;;;;5104360;27;20235;-80
2022/12/28 13:09:07;;;;;;;17.20;8.60;;;6.10;99.90;;;;;;5088168;28;20347;-80
2022/12/28 13:11:57;;;;;;;14.77;8.80;;;6.00;99.90;;;;;;5089224;28;20288;-80
2022/12/28 13:14:47;;;;;;;14.20;8.37;;;6.10;99.90;;;;;;5122188;27;20223;-80
2022/12/28 13:17:36;;;;;;;16.40;8.33;;;6.10;99.90;;;;;;5087680;28;20275;-80
2022/12/28 13:20:25;;;;;;;14.73;7.90;;;6.10;99.90;;;;;;5087681;27;20333;-80
2022/12/28 13:23:17;;;;;;;19.47;8.03;;;6.00;99.90;;;;;;5102970;27;20638;-81
2022/12/28 13:26:06;;;;;;;15.67;8.27;;;6.10;99.90;;;;;;5098303;27;20236;-83
2022/12/28 13:28:59;;;;;;;16.17;8.10;;;6.00;99.90;;;;;;5115353;27;20351;-84
2022/12/28 13:31:49;;;;;;;16.43;7.57;;;6.20;99.90;;;;;;5111937;27;20234;-88
2022/12/28 13:34:39;;;;;;;13.07;7.80;;;6.30;99.90;;;;;;5087283;28;20229;-78
2022/12/28 13:37:29;;;;;;;17.13;8.17;;;6.30;99.90;;;;;;5096637;27;20733;-78
2022/12/28 13:40:20;;;;;;;14.10;7.53;;;6.30;99.90;;;;;;5098725;28;20617;-77
2022/12/28 13:43:55;;;;;;;13.93;7.73;;;6.20;99.90;;;;;;5097154;28;20363;-79
2022/12/28 13:46:49;;;;;;;15.00;6.80;;;6.20;99.90;;;;;;5091458;27;20234;-78
2022/12/28 13:49:43;;;;;;;17.47;8.00;;;6.30;99.90;;;;;;5098081;27;20218;-79
2022/12/28 13:52:36;;;;;;;23.47;8.20;;;6.10;99.90;;;;;;5089242;28;20212;-78
2022/12/28 13:55:34;;;;;;;13.77;7.03;;;6.10;99.90;;;;;;5128549;27;20705;-78
2022/12/28 13:58:27;;;;;;;19.40;7.93;;;6.10;99.90;;;;;;5118993;27;20215;-79
2022/12/28 14:01:19;;;;;;;13.70;6.87;;;6.10;99.90;;;;;;5088152;28;20214;-78
2022/12/28 14:04:11;;;;;;;15.37;7.10;;;6.10;99.90;;;;;;5088702;28;20229;-79
2022/12/28 14:07:23;;;;;;;13.97;7.43;;;6.10;99.90;;;;;;5093939;28;20231;-79
2022/12/28 14:10:12;;;;;;;15.90;7.20;;;6.20;99.90;;;;;;5089455;27;20219;-79
2022/12/28 14:13:04;;;;;;;17.67;6.73;;;6.20;99.90;;;;;;5099750;27;20238;-77
2022/12/28 14:15:54;;;;;;;17.67;6.97;;;6.10;99.90;;;;;;5084536;28;20220;-79
2022/12/28 14:18:45;;;;;;;20.17;7.40;;;6.10;99.90;;;;;;5126027;27;20306;-79
2022/12/28 14:21:36;;;;;;;12.40;6.50;;;6.10;99.90;;;;;;5091789;28;20211;-79
2022/12/28 14:24:25;;;;;;;14.73;6.90;;;6.00;99.90;;;;;;5090823;28;20610;-78
2022/12/28 14:27:17;;;;;;;12.43;6.80;;;6.10;99.90;;;;;;5095090;28;20222;-77
2022/12/28 14:30:21;;;;;;;12.53;6.57;;;6.00;99.90;;;;;;5096793;27;20216;-83
2022/12/28 14:33:17;;;;;;;14.20;6.80;;;6.10;99.90;;;;;;5130346;27;20638;-82
2022/12/28 14:36:21;;;;;;;13.07;6.50;;;6.10;99.90;;;;;;5095785;28;20219;-82
2022/12/28 14:39:29;;;;;;;13.10;6.10;;;6.10;99.90;;;;;;5088979;28;20271;-82
2022/12/28 14:42:23;;;;;;;13.27;6.30;;;6.10;99.90;;;;;;5127415;27;20358;-83
2022/12/28 14:45:39;;;;;;;13.03;6.10;;;6.20;99.90;;;;;;5092720;28;20237;-80
2022/12/28 14:48:48;;;;;;;12.67;6.27;;;6.20;99.90;;;;;;5098583;27;20247;-80
2022/12/28 14:51:37;;;;;;;12.27;6.57;;;6.20;99.90;;;;;;5092993;28;20231;-80
2022/12/28 14:54:34;;;;;;;18.93;7.43;;;6.20;99.90;;;;;;5104292;27;20218;-85
2022/12/28 14:57:30;;;;;;;11.27;6.00;;;6.20;99.90;;;;;;5103889;27;20235;-83
2022/12/28 15:00:26;;;;;;;16.57;6.23;;;6.20;99.90;;;;;;5104289;27;20227;-81
2022/12/28 15:03:19;;;;;;;14.27;6.90;;;6.20;99.90;;;;;;5121548;27;20238;-83
2022/12/28 15:06:08;;;;;;;11.90;6.13;;;6.20;99.90;;;;;;5097485;27;20219;-83
2022/12/28 15:08:58;;;;;;;12.70;6.77;;;6.20;99.90;;;;;;5091662;27;20228;-82
2022/12/28 15:11:47;;;;;;;10.87;5.83;;;6.20;99.90;;;;;;5100977;27;20345;-82
2022/12/28 15:14:36;;;;;;;11.53;6.97;;;6.20;99.90;;;;;;5097385;27;20219;-82
2022/12/28 15:17:25;;;;;;;12.83;5.83;;;6.20;99.90;;;;;;5121571;27;20351;-82
2022/12/28 15:20:22;;;;;;;12.33;6.23;;;6.20;99.90;;;;;;5093755;28;20714;-82
2022/12/28 15:23:11;;;;;;;13.07;6.00;;;6.20;99.90;;;;;;5103198;28;20645;-82
2022/12/28 15:26:05;;;;;;;15.07;6.13;;;6.30;99.90;;;;;;5104561;27;20228;-82
2022/12/28 15:28:54;;;;;;;12.37;5.70;;;6.20;99.90;;;;;;5106295;27;20230;-82
2022/12/28 15:31:43;;;;;;;14.93;5.50;;;6.30;99.90;;;;;;5096881;27;20280;-82